Selected Aviation Weather Reports

Never base important decisions on this or any weather information obtained from a non-NWS site!

Last update: Apr 21, 2024, 6:32 am CDT

 

METAR for KATL, KDFW, KEWR, KLAX, KMEM & KORD

METAR is also known as Meteorological Terminal Aviation Routine Weather Report or Met eorological Aerodrome Report.


2024/04/21 10:52 KATL 211052Z 33008KT 10SM BKN036 OVC060 13/11 A2995 RMK AO2 RAB01E21 SLP139 P0000 T01280111

KATL, Apr 21, 2024, 10:52Z
Hartsfield-Jackson Atlanta International Airport
Wind: 330° @ 8 kts
Visibility: 10 Statute miles
Clouds: Broken @ 3,600 ft
Overcast @ 6,000 ft
Altimeter: 29.95 in/Hg
Sea Level Pressure: 1013.9 mb
Temperature: 55.04°F (12.8°C)
Dew Point: 51.98°F (11.1°C)
Precipitation, previous hr: None
Additional Remarks: 
Rain began @ 1 and ended @ 21 past the hr.

2024/04/21 10:53 KDFW 211053Z 02010KT 10SM OVC060 12/06 A3025 RMK AO2 SLP243 T01170061 $

KDFW, Apr 21, 2024, 10:53Z
Dallas-Ft. Worth International Airport
Wind: 020° @ 10 kts
Visibility: 10 Statute miles
Clouds: Overcast @ 6,000 ft
Altimeter: 30.25 in/Hg
Sea Level Pressure: 1024.3 mb
Temperature: 53.06°F (11.7°C)
Dew Point: 42.98°F (6.1°C)
Additional Remarks: 
Maintenance Needed on the System.

2024/04/21 10:51 KEWR 211051Z 30006KT 10SM FEW140 BKN200 BKN250 06/M03 A3006 RMK AO2 SLP178 T00611033

KEWR, Apr 21, 2024, 10:51Z
Newark Liberty International Airport
Wind: 300° @ 6 kts
Visibility: 10 Statute miles
Clouds: Few @ 14,000 ft
Broken @ 20,000 ft
Broken @ 25,000 ft
Altimeter: 30.06 in/Hg
Sea Level Pressure: 1017.8 mb
Temperature: 42.98°F (6.1°C)
Dew Point: 26.06°F (-3.3°C)

2024/04/21 10:53 KLAX 211053Z 34003KT 10SM BKN009 13/12 A2999 RMK AO2 SLP155 T01330117 $

KLAX, Apr 21, 2024, 10:53Z
Los Angeles International Airport
Wind: 340° @ 3 kts
Visibility: 10 Statute miles
Clouds: Broken @ 900 ft
Altimeter: 29.99 in/Hg
Sea Level Pressure: 1015.5 mb
Temperature: 55.94°F (13.3°C)
Dew Point: 53.06°F (11.7°C)
Additional Remarks: 
Maintenance Needed on the System.

2024/04/21 10:54 KMEM 211054Z 02010KT 10SM OVC085 11/03 A3021 RMK AO2 SLP230 T01060033

KMEM, Apr 21, 2024, 10:54Z
Memphis International Airport
Wind: 020° @ 10 kts
Visibility: 10 Statute miles
Clouds: Overcast @ 8,500 ft
Altimeter: 30.21 in/Hg
Sea Level Pressure: 1023.0 mb
Temperature: 51.08°F (10.6°C)
Dew Point: 37.94°F (3.3°C)

2024/04/21 10:51 KORD 211051Z 26006KT 10SM FEW050 FEW250 01/M04 A3017 RMK AO2 SLP221 T00061044

KORD, Apr 21, 2024, 10:51Z
Chicago O’Hare International Airport
Wind: 260° @ 6 kts
Visibility: 10 Statute miles
Clouds: Few @ 5,000 ft
Few @ 25,000 ft
Altimeter: 30.17 in/Hg
Sea Level Pressure: 1022.1 mb
Temperature: 33.08°F (0.6°C)
Dew Point: 24.08°F (-4.4°C)

Top of page